sensor_id;sensor_type;location;lat;lon;timestamp;P1;durP1;ratioP1;P2;durP2;ratioP2
16403;SDS011;8311;50.158;8.642;2022-10-16T00:02:13;3.05;;;1.65;;
16403;SDS011;8311;50.158;8.642;2022-10-16T00:05:06;2.55;;;1.25;;
16403;SDS011;8311;50.158;8.642;2022-10-16T00:07:59;2.45;;;1.60;;
16403;SDS011;8311;50.158;8.642;2022-10-16T00:10:59;2.42;;;1.35;;
16403;SDS011;8311;50.158;8.642;2022-10-16T00:13:54;2.15;;;1.45;;
16403;SDS011;8311;50.158;8.642;2022-10-16T00:16:49;2.70;;;1.60;;
16403;SDS011;8311;50.158;8.642;2022-10-16T00:19:42;2.58;;;1.60;;
16403;SDS011;8311;50.158;8.642;2022-10-16T00:22:35;3.05;;;1.60;;
16403;SDS011;8311;50.158;8.642;2022-10-16T00:25:28;1.85;;;1.42;;
16403;SDS011;8311;50.158;8.642;2022-10-16T00:28:25;1.83;;;1.30;;
16403;SDS011;8311;50.158;8.642;2022-10-16T00:31:20;2.58;;;1.60;;
16403;SDS011;8311;50.158;8.642;2022-10-16T00:34:13;2.38;;;1.50;;
16403;SDS011;8311;50.158;8.642;2022-10-16T00:37:06;1.90;;;1.30;;
16403;SDS011;8311;50.158;8.642;2022-10-16T00:39:59;2.20;;;1.50;;
16403;SDS011;8311;50.158;8.642;2022-10-16T00:42:52;1.65;;;1.15;;
16403;SDS011;8311;50.158;8.642;2022-10-16T00:45:46;2.80;;;1.40;;
16403;SDS011;8311;50.158;8.642;2022-10-16T00:48:39;1.55;;;1.23;;
16403;SDS011;8311;50.158;8.642;2022-10-16T00:51:34;2.55;;;1.50;;
16403;SDS011;8311;50.158;8.642;2022-10-16T00:54:28;2.17;;;1.38;;
16403;SDS011;8311;50.158;8.642;2022-10-16T00:57:23;1.77;;;1.25;;
16403;SDS011;8311;50.158;8.642;2022-10-16T01:00:19;2.35;;;1.13;;
16403;SDS011;8311;50.158;8.642;2022-10-16T01:06:31;1.60;;;1.25;;
16403;SDS011;8311;50.158;8.642;2022-10-16T01:09:30;2.78;;;1.33;;
16403;SDS011;8311;50.158;8.642;2022-10-16T01:12:32;2.17;;;1.48;;
16403;SDS011;8311;50.158;8.642;2022-10-16T01:15:40;1.95;;;1.23;;
16403;SDS011;8311;50.158;8.642;2022-10-16T01:18:42;2.22;;;1.30;;
16403;SDS011;8311;50.158;8.642;2022-10-16T01:21:39;2.03;;;1.33;;
16403;SDS011;8311;50.158;8.642;2022-10-16T01:24:37;1.73;;;1.23;;
16403;SDS011;8311;50.158;8.642;2022-10-16T01:27:34;1.60;;;1.20;;
16403;SDS011;8311;50.158;8.642;2022-10-16T01:30:29;2.20;;;1.30;;
16403;SDS011;8311;50.158;8.642;2022-10-16T01:33:24;2.42;;;1.35;;
16403;SDS011;8311;50.158;8.642;2022-10-16T01:36:23;2.75;;;1.52;;
16403;SDS011;8311;50.158;8.642;2022-10-16T01:39:20;1.60;;;1.02;;
16403;SDS011;8311;50.158;8.642;2022-10-16T01:42:16;1.90;;;1.25;;
16403;SDS011;8311;50.158;8.642;2022-10-16T01:45:14;1.77;;;1.10;;
16403;SDS011;8311;50.158;8.642;2022-10-16T01:48:10;2.03;;;1.25;;
16403;SDS011;8311;50.158;8.642;2022-10-16T01:51:05;2.25;;;1.48;;
16403;SDS011;8311;50.158;8.642;2022-10-16T01:54:01;1.95;;;1.20;;
16403;SDS011;8311;50.158;8.642;2022-10-16T01:56:57;1.70;;;1.08;;
16403;SDS011;8311;50.158;8.642;2022-10-16T01:59:51;1.75;;;1.30;;
16403;SDS011;8311;50.158;8.642;2022-10-16T02:02:49;2.53;;;1.30;;
16403;SDS011;8311;50.158;8.642;2022-10-16T02:05:47;2.00;;;1.20;;
16403;SDS011;8311;50.158;8.642;2022-10-16T02:08:44;2.33;;;1.38;;
16403;SDS011;8311;50.158;8.642;2022-10-16T02:11:37;2.55;;;1.40;;
16403;SDS011;8311;50.158;8.642;2022-10-16T02:14:30;1.52;;;1.17;;
16403;SDS011;8311;50.158;8.642;2022-10-16T02:17:24;1.52;;;1.05;;
16403;SDS011;8311;50.158;8.642;2022-10-16T02:20:21;2.50;;;1.45;;
16403;SDS011;8311;50.158;8.642;2022-10-16T02:23:19;2.45;;;0.93;;
16403;SDS011;8311;50.158;8.642;2022-10-16T02:26:17;2.47;;;1.42;;
16403;SDS011;8311;50.158;8.642;2022-10-16T02:29:20;2.25;;;1.40;;
16403;SDS011;8311;50.158;8.642;2022-10-16T02:32:17;1.75;;;1.15;;
16403;SDS011;8311;50.158;8.642;2022-10-16T02:35:14;1.70;;;1.20;;
16403;SDS011;8311;50.158;8.642;2022-10-16T02:38:11;1.80;;;1.15;;
16403;SDS011;8311;50.158;8.642;2022-10-16T02:41:06;1.73;;;1.20;;
16403;SDS011;8311;50.158;8.642;2022-10-16T02:44:00;1.65;;;1.33;;
16403;SDS011;8311;50.158;8.642;2022-10-16T02:46:53;1.90;;;1.20;;
16403;SDS011;8311;50.158;8.642;2022-10-16T02:49:46;2.25;;;1.30;;
16403;SDS011;8311;50.158;8.642;2022-10-16T02:52:39;2.53;;;1.13;;
16403;SDS011;8311;50.158;8.642;2022-10-16T02:55:33;1.73;;;1.20;;
16403;SDS011;8311;50.158;8.642;2022-10-16T02:58:26;1.35;;;1.23;;
16403;SDS011;8311;50.158;8.642;2022-10-16T03:01:19;2.08;;;1.15;;
16403;SDS011;8311;50.158;8.642;2022-10-16T03:04:12;1.70;;;1.10;;
16403;SDS011;8311;50.158;8.642;2022-10-16T03:07:05;1.33;;;1.02;;
16403;SDS011;8311;50.158;8.642;2022-10-16T03:09:58;2.22;;;1.50;;
16403;SDS011;8311;50.158;8.642;2022-10-16T03:12:53;1.65;;;1.00;;
16403;SDS011;8311;50.158;8.642;2022-10-16T03:15:46;1.33;;;0.95;;
16403;SDS011;8311;50.158;8.642;2022-10-16T03:18:40;2.80;;;1.10;;
16403;SDS011;8311;50.158;8.642;2022-10-16T03:21:33;1.70;;;1.20;;
16403;SDS011;8311;50.158;8.642;2022-10-16T03:24:26;1.40;;;1.00;;
16403;SDS011;8311;50.158;8.642;2022-10-16T03:27:19;1.73;;;1.13;;
16403;SDS011;8311;50.158;8.642;2022-10-16T03:30:14;1.80;;;1.20;;
16403;SDS011;8311;50.158;8.642;2022-10-16T03:33:07;1.75;;;1.00;;
16403;SDS011;8311;50.158;8.642;2022-10-16T03:36:00;1.42;;;1.02;;
16403;SDS011;8311;50.158;8.642;2022-10-16T03:38:53;1.35;;;0.82;;
16403;SDS011;8311;50.158;8.642;2022-10-16T03:41:46;1.30;;;0.93;;
16403;SDS011;8311;50.158;8.642;2022-10-16T03:44:39;2.03;;;1.40;;
16403;SDS011;8311;50.158;8.642;2022-10-16T03:47:35;2.05;;;1.35;;
16403;SDS011;8311;50.158;8.642;2022-10-16T03:50:28;1.55;;;1.10;;
16403;SDS011;8311;50.158;8.642;2022-10-16T03:53:21;2.55;;;1.50;;
16403;SDS011;8311;50.158;8.642;2022-10-16T03:56:14;1.67;;;1.05;;
16403;SDS011;8311;50.158;8.642;2022-10-16T03:59:07;2.08;;;1.20;;
16403;SDS011;8311;50.158;8.642;2022-10-16T04:02:00;1.48;;;1.10;;
16403;SDS011;8311;50.158;8.642;2022-10-16T04:04:54;1.25;;;0.95;;
16403;SDS011;8311;50.158;8.642;2022-10-16T04:07:47;2.40;;;1.38;;
16403;SDS011;8311;50.158;8.642;2022-10-16T04:10:41;1.75;;;1.15;;
16403;SDS011;8311;50.158;8.642;2022-10-16T04:13:36;1.95;;;1.20;;
16403;SDS011;8311;50.158;8.642;2022-10-16T04:16:29;1.85;;;1.02;;
16403;SDS011;8311;50.158;8.642;2022-10-16T04:19:22;1.40;;;0.90;;
16403;SDS011;8311;50.158;8.642;2022-10-16T04:22:17;1.33;;;1.00;;
16403;SDS011;8311;50.158;8.642;2022-10-16T04:25:10;1.38;;;1.02;;
16403;SDS011;8311;50.158;8.642;2022-10-16T04:28:03;1.52;;;1.10;;
16403;SDS011;8311;50.158;8.642;2022-10-16T04:30:56;1.38;;;1.02;;
16403;SDS011;8311;50.158;8.642;2022-10-16T04:33:49;1.75;;;1.20;;
16403;SDS011;8311;50.158;8.642;2022-10-16T04:36:42;1.27;;;1.08;;
16403;SDS011;8311;50.158;8.642;2022-10-16T04:39:36;1.48;;;1.00;;
16403;SDS011;8311;50.158;8.642;2022-10-16T04:42:29;1.63;;;1.00;;
16403;SDS011;8311;50.158;8.642;2022-10-16T04:45:23;1.55;;;1.08;;
16403;SDS011;8311;50.158;8.642;2022-10-16T04:48:16;1.92;;;1.02;;
16403;SDS011;8311;50.158;8.642;2022-10-16T04:51:09;1.65;;;0.90;;
16403;SDS011;8311;50.158;8.642;2022-10-16T04:54:02;1.65;;;1.00;;
16403;SDS011;8311;50.158;8.642;2022-10-16T04:56:56;0.93;;;0.77;;
16403;SDS011;8311;50.158;8.642;2022-10-16T04:59:49;2.10;;;1.40;;
16403;SDS011;8311;50.158;8.642;2022-10-16T05:02:42;2.40;;;1.15;;
16403;SDS011;8311;50.158;8.642;2022-10-16T05:05:35;1.60;;;1.15;;
16403;SDS011;8311;50.158;8.642;2022-10-16T05:08:28;1.67;;;1.20;;
16403;SDS011;8311;50.158;8.642;2022-10-16T05:11:21;1.40;;;1.08;;
16403;SDS011;8311;50.158;8.642;2022-10-16T05:14:16;1.52;;;1.00;;
16403;SDS011;8311;50.158;8.642;2022-10-16T05:17:10;2.22;;;1.20;;
16403;SDS011;8311;50.158;8.642;2022-10-16T05:20:04;1.58;;;1.10;;
16403;SDS011;8311;50.158;8.642;2022-10-16T05:22:57;1.38;;;0.80;;
16403;SDS011;8311;50.158;8.642;2022-10-16T05:25:53;1.77;;;1.00;;
16403;SDS011;8311;50.158;8.642;2022-10-16T05:28:49;0.90;;;0.90;;
16403;SDS011;8311;50.158;8.642;2022-10-16T05:31:45;1.38;;;0.90;;
16403;SDS011;8311;50.158;8.642;2022-10-16T05:34:38;1.17;;;0.90;;
16403;SDS011;8311;50.158;8.642;2022-10-16T05:37:31;1.52;;;1.05;;
16403;SDS011;8311;50.158;8.642;2022-10-16T05:40:26;1.88;;;1.15;;
16403;SDS011;8311;50.158;8.642;2022-10-16T05:43:19;1.33;;;0.90;;
16403;SDS011;8311;50.158;8.642;2022-10-16T05:46:13;1.55;;;1.00;;
16403;SDS011;8311;50.158;8.642;2022-10-16T05:49:07;2.05;;;1.10;;
16403;SDS011;8311;50.158;8.642;2022-10-16T05:51:59;1.27;;;0.80;;
16403;SDS011;8311;50.158;8.642;2022-10-16T05:54:52;2.20;;;1.27;;
16403;SDS011;8311;50.158;8.642;2022-10-16T05:57:45;0.90;;;0.80;;
16403;SDS011;8311;50.158;8.642;2022-10-16T06:00:38;1.52;;;1.02;;
16403;SDS011;8311;50.158;8.642;2022-10-16T06:03:32;1.38;;;0.90;;
16403;SDS011;8311;50.158;8.642;2022-10-16T06:06:27;1.52;;;1.00;;
16403;SDS011;8311;50.158;8.642;2022-10-16T06:09:20;1.38;;;1.10;;
16403;SDS011;8311;50.158;8.642;2022-10-16T06:12:13;1.05;;;0.77;;
16403;SDS011;8311;50.158;8.642;2022-10-16T06:15:06;1.17;;;0.80;;
16403;SDS011;8311;50.158;8.642;2022-10-16T06:18:00;1.23;;;0.90;;
16403;SDS011;8311;50.158;8.642;2022-10-16T06:20:53;1.80;;;0.98;;
16403;SDS011;8311;50.158;8.642;2022-10-16T06:23:48;0.80;;;0.80;;
16403;SDS011;8311;50.158;8.642;2022-10-16T06:26:40;1.55;;;0.98;;
16403;SDS011;8311;50.158;8.642;2022-10-16T06:29:33;1.50;;;1.10;;
16403;SDS011;8311;50.158;8.642;2022-10-16T06:32:27;0.95;;;0.70;;
16403;SDS011;8311;50.158;8.642;2022-10-16T06:35:19;1.08;;;0.88;;
16403;SDS011;8311;50.158;8.642;2022-10-16T06:38:13;1.13;;;0.90;;
16403;SDS011;8311;50.158;8.642;2022-10-16T06:41:09;1.50;;;1.08;;
16403;SDS011;8311;50.158;8.642;2022-10-16T06:44:05;1.10;;;0.70;;
16403;SDS011;8311;50.158;8.642;2022-10-16T06:46:58;1.25;;;0.85;;
16403;SDS011;8311;50.158;8.642;2022-10-16T06:49:51;0.77;;;0.63;;
16403;SDS011;8311;50.158;8.642;2022-10-16T06:52:44;0.98;;;0.90;;
16403;SDS011;8311;50.158;8.642;2022-10-16T06:55:37;0.70;;;0.70;;
16403;SDS011;8311;50.158;8.642;2022-10-16T06:58:32;1.17;;;0.95;;
16403;SDS011;8311;50.158;8.642;2022-10-16T07:01:25;1.02;;;0.80;;
16403;SDS011;8311;50.158;8.642;2022-10-16T07:04:19;1.95;;;1.00;;
16403;SDS011;8311;50.158;8.642;2022-10-16T07:07:12;1.20;;;0.80;;
16403;SDS011;8311;50.158;8.642;2022-10-16T07:10:06;1.13;;;0.90;;
16403;SDS011;8311;50.158;8.642;2022-10-16T07:12:59;1.25;;;0.90;;
16403;SDS011;8311;50.158;8.642;2022-10-16T07:15:54;0.77;;;0.75;;
16403;SDS011;8311;50.158;8.642;2022-10-16T07:18:47;1.70;;;1.10;;
16403;SDS011;8311;50.158;8.642;2022-10-16T07:21:45;0.90;;;0.80;;
16403;SDS011;8311;50.158;8.642;2022-10-16T07:24:38;0.85;;;0.65;;
16403;SDS011;8311;50.158;8.642;2022-10-16T07:27:31;0.90;;;0.80;;
16403;SDS011;8311;50.158;8.642;2022-10-16T07:30:24;1.15;;;0.85;;
16403;SDS011;8311;50.158;8.642;2022-10-16T07:33:19;1.15;;;0.85;;
16403;SDS011;8311;50.158;8.642;2022-10-16T07:36:12;1.15;;;0.88;;
16403;SDS011;8311;50.158;8.642;2022-10-16T07:39:06;1.33;;;1.00;;
16403;SDS011;8311;50.158;8.642;2022-10-16T07:42:00;1.55;;;0.80;;
16403;SDS011;8311;50.158;8.642;2022-10-16T07:44:52;1.35;;;0.80;;
16403;SDS011;8311;50.158;8.642;2022-10-16T07:47:45;1.65;;;0.93;;
16403;SDS011;8311;50.158;8.642;2022-10-16T07:50:40;1.23;;;0.85;;
16403;SDS011;8311;50.158;8.642;2022-10-16T07:53:33;1.23;;;0.82;;
16403;SDS011;8311;50.158;8.642;2022-10-16T07:56:26;1.35;;;0.88;;
16403;SDS011;8311;50.158;8.642;2022-10-16T07:59:19;1.50;;;1.00;;
16403;SDS011;8311;50.158;8.642;2022-10-16T08:02:12;1.17;;;0.70;;
16403;SDS011;8311;50.158;8.642;2022-10-16T08:05:06;1.05;;;0.82;;
16403;SDS011;8311;50.158;8.642;2022-10-16T08:08:01;2.70;;;0.85;;
16403;SDS011;8311;50.158;8.642;2022-10-16T08:10:54;0.73;;;0.70;;
16403;SDS011;8311;50.158;8.642;2022-10-16T08:13:47;1.38;;;0.98;;
16403;SDS011;8311;50.158;8.642;2022-10-16T08:16:40;1.23;;;0.82;;
16403;SDS011;8311;50.158;8.642;2022-10-16T08:19:33;0.90;;;0.80;;
16403;SDS011;8311;50.158;8.642;2022-10-16T08:22:26;1.08;;;0.85;;
16403;SDS011;8311;50.158;8.642;2022-10-16T08:25:21;0.98;;;0.73;;
16403;SDS011;8311;50.158;8.642;2022-10-16T08:28:15;1.30;;;0.90;;
16403;SDS011;8311;50.158;8.642;2022-10-16T08:31:08;0.93;;;0.77;;
16403;SDS011;8311;50.158;8.642;2022-10-16T08:34:02;1.40;;;0.90;;
16403;SDS011;8311;50.158;8.642;2022-10-16T08:36:55;1.45;;;1.00;;
16403;SDS011;8311;50.158;8.642;2022-10-16T08:39:48;0.88;;;0.70;;
16403;SDS011;8311;50.158;8.642;2022-10-16T08:42:46;1.15;;;1.00;;
16403;SDS011;8311;50.158;8.642;2022-10-16T08:46:04;3.22;;;1.15;;
16403;SDS011;8311;50.158;8.642;2022-10-16T08:49:08;1.13;;;0.80;;
16403;SDS011;8311;50.158;8.642;2022-10-16T08:52:08;1.00;;;0.70;;
16403;SDS011;8311;50.158;8.642;2022-10-16T08:55:05;1.35;;;0.80;;
16403;SDS011;8311;50.158;8.642;2022-10-16T08:58:00;1.52;;;0.90;;
16403;SDS011;8311;50.158;8.642;2022-10-16T09:00:54;0.73;;;0.73;;
16403;SDS011;8311;50.158;8.642;2022-10-16T09:07:20;1.17;;;0.70;;
16403;SDS011;8311;50.158;8.642;2022-10-16T09:10:24;1.25;;;0.88;;
16403;SDS011;8311;50.158;8.642;2022-10-16T09:13:26;1.00;;;0.70;;
16403;SDS011;8311;50.158;8.642;2022-10-16T09:16:22;1.30;;;0.90;;
16403;SDS011;8311;50.158;8.642;2022-10-16T09:19:20;0.68;;;0.68;;
16403;SDS011;8311;50.158;8.642;2022-10-16T09:22:20;0.98;;;0.73;;
16403;SDS011;8311;50.158;8.642;2022-10-16T09:25:17;0.82;;;0.63;;
16403;SDS011;8311;50.158;8.642;2022-10-16T09:28:13;1.27;;;0.90;;
16403;SDS011;8311;50.158;8.642;2022-10-16T09:31:11;0.68;;;0.60;;
16403;SDS011;8311;50.158;8.642;2022-10-16T09:34:11;2.03;;;1.00;;
16403;SDS011;8311;50.158;8.642;2022-10-16T09:37:20;1.65;;;0.80;;
16403;SDS011;8311;50.158;8.642;2022-10-16T09:40:23;1.88;;;0.90;;
16403;SDS011;8311;50.158;8.642;2022-10-16T09:43:20;1.60;;;0.70;;
16403;SDS011;8311;50.158;8.642;2022-10-16T09:46:24;1.05;;;0.63;;
16403;SDS011;8311;50.158;8.642;2022-10-16T09:49:20;1.48;;;0.82;;
16403;SDS011;8311;50.158;8.642;2022-10-16T09:52:15;0.80;;;0.60;;
16403;SDS011;8311;50.158;8.642;2022-10-16T09:55:13;0.98;;;0.88;;
16403;SDS011;8311;50.158;8.642;2022-10-16T09:58:11;0.55;;;0.55;;
16403;SDS011;8311;50.158;8.642;2022-10-16T10:01:11;0.68;;;0.60;;
16403;SDS011;8311;50.158;8.642;2022-10-16T10:04:07;1.35;;;0.88;;
16403;SDS011;8311;50.158;8.642;2022-10-16T10:07:01;3.20;;;0.95;;
16403;SDS011;8311;50.158;8.642;2022-10-16T10:09:53;1.73;;;0.85;;
16403;SDS011;8311;50.158;8.642;2022-10-16T10:12:48;1.20;;;0.80;;
16403;SDS011;8311;50.158;8.642;2022-10-16T10:15:41;0.90;;;0.80;;
16403;SDS011;8311;50.158;8.642;2022-10-16T10:18:34;0.70;;;0.60;;
16403;SDS011;8311;50.158;8.642;2022-10-16T10:21:29;0.90;;;0.63;;
16403;SDS011;8311;50.158;8.642;2022-10-16T10:24:24;1.10;;;0.85;;
16403;SDS011;8311;50.158;8.642;2022-10-16T10:27:18;0.98;;;0.80;;
16403;SDS011;8311;50.158;8.642;2022-10-16T10:30:14;0.60;;;0.60;;
16403;SDS011;8311;50.158;8.642;2022-10-16T10:33:14;1.90;;;0.80;;
16403;SDS011;8311;50.158;8.642;2022-10-16T10:39:27;1.48;;;0.80;;
16403;SDS011;8311;50.158;8.642;2022-10-16T10:42:25;1.10;;;0.77;;
16403;SDS011;8311;50.158;8.642;2022-10-16T10:45:26;0.73;;;0.68;;
16403;SDS011;8311;50.158;8.642;2022-10-16T10:51:47;0.85;;;0.77;;
16403;SDS011;8311;50.158;8.642;2022-10-16T10:54:48;0.95;;;0.80;;
16403;SDS011;8311;50.158;8.642;2022-10-16T10:57:53;0.93;;;0.77;;
16403;SDS011;8311;50.158;8.642;2022-10-16T11:01:04;1.38;;;0.60;;
16403;SDS011;8311;50.158;8.642;2022-10-16T11:04:09;1.20;;;0.80;;
16403;SDS011;8311;50.158;8.642;2022-10-16T11:07:17;0.90;;;0.70;;
16403;SDS011;8311;50.158;8.642;2022-10-16T11:10:15;0.90;;;0.77;;
16403;SDS011;8311;50.158;8.642;2022-10-16T11:13:16;1.02;;;0.77;;
16403;SDS011;8311;50.158;8.642;2022-10-16T11:16:17;0.90;;;0.80;;
16403;SDS011;8311;50.158;8.642;2022-10-16T11:19:21;1.02;;;0.70;;
16403;SDS011;8311;50.158;8.642;2022-10-16T11:22:22;1.00;;;0.68;;
16403;SDS011;8311;50.158;8.642;2022-10-16T11:25:20;0.80;;;0.73;;
16403;SDS011;8311;50.158;8.642;2022-10-16T11:28:16;1.13;;;0.80;;
16403;SDS011;8311;50.158;8.642;2022-10-16T11:31:13;0.85;;;0.73;;
16403;SDS011;8311;50.158;8.642;2022-10-16T11:34:12;1.17;;;0.70;;
16403;SDS011;8311;50.158;8.642;2022-10-16T11:37:12;1.02;;;0.70;;
16403;SDS011;8311;50.158;8.642;2022-10-16T11:40:16;1.13;;;0.70;;
16403;SDS011;8311;50.158;8.642;2022-10-16T11:43:15;1.67;;;0.70;;
16403;SDS011;8311;50.158;8.642;2022-10-16T11:46:15;1.13;;;0.82;;
16403;SDS011;8311;50.158;8.642;2022-10-16T11:49:12;0.65;;;0.65;;
16403;SDS011;8311;50.158;8.642;2022-10-16T11:52:11;1.00;;;0.73;;
16403;SDS011;8311;50.158;8.642;2022-10-16T11:55:14;0.63;;;0.60;;
16403;SDS011;8311;50.158;8.642;2022-10-16T11:58:13;1.85;;;0.80;;
16403;SDS011;8311;50.158;8.642;2022-10-16T12:01:16;1.15;;;0.80;;
16403;SDS011;8311;50.158;8.642;2022-10-16T12:04:14;0.60;;;0.60;;
16403;SDS011;8311;50.158;8.642;2022-10-16T12:07:12;1.25;;;0.77;;
16403;SDS011;8311;50.158;8.642;2022-10-16T12:10:10;0.57;;;0.57;;
16403;SDS011;8311;50.158;8.642;2022-10-16T12:13:32;1.17;;;0.90;;
16403;SDS011;8311;50.158;8.642;2022-10-16T12:16:26;1.00;;;0.70;;
16403;SDS011;8311;50.158;8.642;2022-10-16T12:19:20;0.90;;;0.80;;
16403;SDS011;8311;50.158;8.642;2022-10-16T12:22:15;0.95;;;0.75;;
16403;SDS011;8311;50.158;8.642;2022-10-16T12:25:18;1.58;;;0.80;;
16403;SDS011;8311;50.158;8.642;2022-10-16T12:28:17;0.75;;;0.73;;
16403;SDS011;8311;50.158;8.642;2022-10-16T12:31:15;1.60;;;0.77;;
16403;SDS011;8311;50.158;8.642;2022-10-16T12:34:14;1.50;;;0.73;;
16403;SDS011;8311;50.158;8.642;2022-10-16T12:37:18;2.33;;;0.80;;
16403;SDS011;8311;50.158;8.642;2022-10-16T12:40:16;1.35;;;0.90;;
16403;SDS011;8311;50.158;8.642;2022-10-16T12:43:35;1.13;;;0.82;;
16403;SDS011;8311;50.158;8.642;2022-10-16T12:46:37;1.55;;;0.90;;
16403;SDS011;8311;50.158;8.642;2022-10-16T12:49:32;0.60;;;0.60;;
16403;SDS011;8311;50.158;8.642;2022-10-16T12:52:34;0.82;;;0.68;;
16403;SDS011;8311;50.158;8.642;2022-10-16T12:55:32;0.73;;;0.70;;
16403;SDS011;8311;50.158;8.642;2022-10-16T12:58:46;1.42;;;0.88;;
16403;SDS011;8311;50.158;8.642;2022-10-16T13:01:56;0.60;;;0.60;;
16403;SDS011;8311;50.158;8.642;2022-10-16T13:05:13;0.90;;;0.73;;
16403;SDS011;8311;50.158;8.642;2022-10-16T13:08:30;0.60;;;0.60;;
16403;SDS011;8311;50.158;8.642;2022-10-16T13:11:50;0.55;;;0.55;;
16403;SDS011;8311;50.158;8.642;2022-10-16T13:18:29;0.95;;;0.70;;
16403;SDS011;8311;50.158;8.642;2022-10-16T13:21:38;1.67;;;0.70;;
16403;SDS011;8311;50.158;8.642;2022-10-16T13:24:42;0.93;;;0.60;;
16403;SDS011;8311;50.158;8.642;2022-10-16T13:27:47;0.60;;;0.60;;
16403;SDS011;8311;50.158;8.642;2022-10-16T13:30:50;0.50;;;0.50;;
16403;SDS011;8311;50.158;8.642;2022-10-16T13:33:47;1.20;;;0.80;;
16403;SDS011;8311;50.158;8.642;2022-10-16T13:36:46;1.05;;;0.65;;
16403;SDS011;8311;50.158;8.642;2022-10-16T13:39:41;0.80;;;0.77;;
16403;SDS011;8311;50.158;8.642;2022-10-16T13:42:34;0.90;;;0.70;;
16403;SDS011;8311;50.158;8.642;2022-10-16T13:45:28;0.60;;;0.50;;
16403;SDS011;8311;50.158;8.642;2022-10-16T13:48:21;1.17;;;0.80;;
16403;SDS011;8311;50.158;8.642;2022-10-16T13:51:16;0.70;;;0.60;;
16403;SDS011;8311;50.158;8.642;2022-10-16T13:54:10;0.98;;;0.70;;
16403;SDS011;8311;50.158;8.642;2022-10-16T13:57:04;1.00;;;0.70;;
16403;SDS011;8311;50.158;8.642;2022-10-16T14:00:20;0.70;;;0.65;;
16403;SDS011;8311;50.158;8.642;2022-10-16T14:03:15;0.90;;;0.60;;
16403;SDS011;8311;50.158;8.642;2022-10-16T14:06:11;0.55;;;0.43;;
16403;SDS011;8311;50.158;8.642;2022-10-16T14:09:08;0.60;;;0.60;;
16403;SDS011;8311;50.158;8.642;2022-10-16T14:12:08;0.65;;;0.60;;
16403;SDS011;8311;50.158;8.642;2022-10-16T14:15:05;0.50;;;0.50;;
16403;SDS011;8311;50.158;8.642;2022-10-16T14:18:13;0.65;;;0.60;;
16403;SDS011;8311;50.158;8.642;2022-10-16T14:21:11;0.80;;;0.65;;
16403;SDS011;8311;50.158;8.642;2022-10-16T14:24:11;0.65;;;0.63;;
16403;SDS011;8311;50.158;8.642;2022-10-16T14:30:19;0.40;;;0.40;;
16403;SDS011;8311;50.158;8.642;2022-10-16T14:33:20;0.75;;;0.60;;
16403;SDS011;8311;50.158;8.642;2022-10-16T14:36:15;1.23;;;0.80;;
16403;SDS011;8311;50.158;8.642;2022-10-16T14:39:17;1.80;;;0.52;;
16403;SDS011;8311;50.158;8.642;2022-10-16T14:42:14;0.70;;;0.70;;
16403;SDS011;8311;50.158;8.642;2022-10-16T14:45:11;0.55;;;0.50;;
16403;SDS011;8311;50.158;8.642;2022-10-16T14:48:05;0.60;;;0.60;;
16403;SDS011;8311;50.158;8.642;2022-10-16T14:51:13;0.75;;;0.50;;
16403;SDS011;8311;50.158;8.642;2022-10-16T14:54:07;1.38;;;0.70;;
16403;SDS011;8311;50.158;8.642;2022-10-16T14:57:02;0.60;;;0.60;;
16403;SDS011;8311;50.158;8.642;2022-10-16T14:59:55;0.85;;;0.60;;
16403;SDS011;8311;50.158;8.642;2022-10-16T15:02:49;0.85;;;0.70;;
16403;SDS011;8311;50.158;8.642;2022-10-16T15:05:43;0.52;;;0.52;;
16403;SDS011;8311;50.158;8.642;2022-10-16T15:08:36;0.63;;;0.60;;
16403;SDS011;8311;50.158;8.642;2022-10-16T15:11:28;0.93;;;0.63;;
16403;SDS011;8311;50.158;8.642;2022-10-16T15:14:26;0.82;;;0.60;;
16403;SDS011;8311;50.158;8.642;2022-10-16T15:17:18;2.10;;;0.70;;
16403;SDS011;8311;50.158;8.642;2022-10-16T15:20:13;0.70;;;0.55;;
16403;SDS011;8311;50.158;8.642;2022-10-16T15:23:06;0.63;;;0.60;;
16403;SDS011;8311;50.158;8.642;2022-10-16T15:26:07;0.60;;;0.55;;
16403;SDS011;8311;50.158;8.642;2022-10-16T15:29:00;0.70;;;0.50;;
16403;SDS011;8311;50.158;8.642;2022-10-16T15:31:54;0.63;;;0.63;;
16403;SDS011;8311;50.158;8.642;2022-10-16T15:34:48;0.70;;;0.50;;
16403;SDS011;8311;50.158;8.642;2022-10-16T15:37:41;0.55;;;0.55;;
16403;SDS011;8311;50.158;8.642;2022-10-16T15:40:35;0.70;;;0.60;;
16403;SDS011;8311;50.158;8.642;2022-10-16T15:43:28;0.57;;;0.57;;
16403;SDS011;8311;50.158;8.642;2022-10-16T15:46:21;0.60;;;0.50;;
16403;SDS011;8311;50.158;8.642;2022-10-16T15:49:17;0.45;;;0.43;;
16403;SDS011;8311;50.158;8.642;2022-10-16T15:52:11;0.57;;;0.52;;
16403;SDS011;8311;50.158;8.642;2022-10-16T15:55:04;0.73;;;0.63;;
16403;SDS011;8311;50.158;8.642;2022-10-16T15:57:58;0.40;;;0.40;;
16403;SDS011;8311;50.158;8.642;2022-10-16T16:00:54;0.40;;;0.40;;
16403;SDS011;8311;50.158;8.642;2022-10-16T16:03:48;0.63;;;0.50;;
16403;SDS011;8311;50.158;8.642;2022-10-16T16:06:46;0.40;;;0.40;;
16403;SDS011;8311;50.158;8.642;2022-10-16T16:09:39;0.93;;;0.60;;
16403;SDS011;8311;50.158;8.642;2022-10-16T16:12:32;1.00;;;0.90;;
16403;SDS011;8311;50.158;8.642;2022-10-16T16:15:25;0.80;;;0.52;;
16403;SDS011;8311;50.158;8.642;2022-10-16T16:18:18;0.60;;;0.40;;
16403;SDS011;8311;50.158;8.642;2022-10-16T16:21:12;0.50;;;0.47;;
16403;SDS011;8311;50.158;8.642;2022-10-16T16:24:07;1.10;;;0.70;;
16403;SDS011;8311;50.158;8.642;2022-10-16T16:27:01;0.80;;;0.70;;
16403;SDS011;8311;50.158;8.642;2022-10-16T16:29:59;0.50;;;0.50;;
16403;SDS011;8311;50.158;8.642;2022-10-16T16:32:55;0.95;;;0.65;;
16403;SDS011;8311;50.158;8.642;2022-10-16T16:35:48;0.52;;;0.52;;
16403;SDS011;8311;50.158;8.642;2022-10-16T16:38:41;0.82;;;0.52;;
16403;SDS011;8311;50.158;8.642;2022-10-16T16:41:35;1.23;;;0.73;;
16403;SDS011;8311;50.158;8.642;2022-10-16T16:44:29;0.63;;;0.60;;
16403;SDS011;8311;50.158;8.642;2022-10-16T16:47:22;0.80;;;0.80;;
16403;SDS011;8311;50.158;8.642;2022-10-16T16:50:16;0.68;;;0.60;;
16403;SDS011;8311;50.158;8.642;2022-10-16T16:53:09;1.15;;;0.60;;
16403;SDS011;8311;50.158;8.642;2022-10-16T16:56:02;0.57;;;0.57;;
16403;SDS011;8311;50.158;8.642;2022-10-16T16:58:57;0.75;;;0.50;;
16403;SDS011;8311;50.158;8.642;2022-10-16T17:01:50;0.40;;;0.40;;
16403;SDS011;8311;50.158;8.642;2022-10-16T17:04:48;0.80;;;0.60;;
16403;SDS011;8311;50.158;8.642;2022-10-16T17:07:42;0.50;;;0.50;;
16403;SDS011;8311;50.158;8.642;2022-10-16T17:10:41;0.98;;;0.60;;
16403;SDS011;8311;50.158;8.642;2022-10-16T17:13:35;0.75;;;0.47;;
16403;SDS011;8311;50.158;8.642;2022-10-16T17:16:31;0.80;;;0.77;;
16403;SDS011;8311;50.158;8.642;2022-10-16T17:19:26;1.00;;;0.50;;
16403;SDS011;8311;50.158;8.642;2022-10-16T17:22:19;0.93;;;0.50;;
16403;SDS011;8311;50.158;8.642;2022-10-16T17:25:12;0.70;;;0.65;;
16403;SDS011;8311;50.158;8.642;2022-10-16T17:28:05;0.82;;;0.52;;
16403;SDS011;8311;50.158;8.642;2022-10-16T17:31:09;0.55;;;0.55;;
16403;SDS011;8311;50.158;8.642;2022-10-16T17:34:05;1.13;;;0.70;;
16403;SDS011;8311;50.158;8.642;2022-10-16T17:37:00;0.57;;;0.55;;
16403;SDS011;8311;50.158;8.642;2022-10-16T17:39:54;0.60;;;0.43;;
16403;SDS011;8311;50.158;8.642;2022-10-16T17:42:47;0.77;;;0.55;;
16403;SDS011;8311;50.158;8.642;2022-10-16T17:45:41;0.88;;;0.60;;
16403;SDS011;8311;50.158;8.642;2022-10-16T17:48:36;0.60;;;0.60;;
16403;SDS011;8311;50.158;8.642;2022-10-16T17:51:31;0.40;;;0.40;;
16403;SDS011;8311;50.158;8.642;2022-10-16T17:54:24;0.73;;;0.60;;
16403;SDS011;8311;50.158;8.642;2022-10-16T17:57:17;0.80;;;0.68;;
16403;SDS011;8311;50.158;8.642;2022-10-16T18:00:11;0.43;;;0.43;;
16403;SDS011;8311;50.158;8.642;2022-10-16T18:03:05;0.55;;;0.55;;
16403;SDS011;8311;50.158;8.642;2022-10-16T18:05:58;0.90;;;0.60;;
16403;SDS011;8311;50.158;8.642;2022-10-16T18:08:57;1.00;;;0.75;;
16403;SDS011;8311;50.158;8.642;2022-10-16T18:11:51;0.73;;;0.60;;
16403;SDS011;8311;50.158;8.642;2022-10-16T18:14:50;0.50;;;0.50;;
16403;SDS011;8311;50.158;8.642;2022-10-16T18:17:46;0.70;;;0.70;;